createdAt,value
2022-08-17T00:01:52.031Z,92425.53
2022-08-17T00:04:24.184Z,92424.50
2022-08-17T00:06:54.188Z,92427.78
2022-08-17T00:09:24.225Z,92434.88
2022-08-17T00:12:34.686Z,92430.44
2022-08-17T00:14:45.812Z,92439.00
2022-08-17T00:17:15.955Z,92433.88
2022-08-17T00:19:46.045Z,92437.03
2022-08-17T00:22:35.150Z,92439.50
2022-08-17T00:25:09.219Z,92434.38
2022-08-17T00:27:40.767Z,92430.09
2022-08-17T00:30:14.743Z,92429.78
2022-08-17T00:33:12.681Z,92422.50
2022-08-17T00:35:38.587Z,92430.41
2022-08-17T00:38:10.231Z,92426.44
2022-08-17T00:40:44.951Z,92425.81
2022-08-17T00:43:23.863Z,92421.66
2022-08-17T00:45:54.064Z,92409.63
2022-08-17T00:48:30.456Z,92411.59
2022-08-17T00:52:47.053Z,92422.81
2022-08-17T00:55:17.662Z,92413.56
2022-08-17T00:57:55.037Z,92419.03
2022-08-17T01:00:29.028Z,92425.94
2022-08-17T01:03:06.702Z,92416.53
2022-08-17T01:05:42.237Z,92425.22
2022-08-17T01:08:17.331Z,92422.59
2022-08-17T01:10:59.456Z,92416.66
2022-08-17T01:13:39.731Z,92422.75
2022-08-17T01:16:20.175Z,92424.56
2022-08-17T01:18:54.022Z,92421.13
2022-08-17T01:21:34.357Z,92421.59
2022-08-17T01:24:06.945Z,92423.72
2022-08-17T01:26:38.305Z,92422.69
2022-08-17T01:29:09.227Z,92424.00
2022-08-17T01:31:43.483Z,92418.91
2022-08-17T01:34:16.724Z,92418.06
2022-08-17T01:36:50.159Z,92425.28
2022-08-17T01:39:28.903Z,92417.56
2022-08-17T01:42:08.884Z,92402.22
2022-08-17T01:44:40.887Z,92404.88
2022-08-17T01:47:11.153Z,92409.31
2022-08-17T01:49:41.222Z,92397.44
2022-08-17T01:52:13.706Z,92396.28
2022-08-17T01:54:49.683Z,92395.28
2022-08-17T01:57:20.042Z,92390.84
2022-08-17T01:59:50.256Z,92396.59
2022-08-17T02:02:30.989Z,92399.81
2022-08-17T02:05:02.386Z,92402.78
2022-08-17T02:07:32.388Z,92403.31
2022-08-17T02:10:24.435Z,92405.56
2022-08-17T02:13:05.664Z,92399.34
2022-08-17T02:15:36.326Z,92397.19
2022-08-17T02:18:08.217Z,92397.00
2022-08-17T02:20:42.502Z,92398.31
2022-08-17T02:23:14.457Z,92395.03
2022-08-17T02:25:49.461Z,92399.09
2022-08-17T02:28:20.522Z,92393.38
2022-08-17T02:31:01.844Z,92394.72
2022-08-17T02:33:41.709Z,92396.06
2022-08-17T02:36:14.962Z,92390.59
2022-08-17T02:38:45.022Z,92392.25
2022-08-17T02:41:17.013Z,92390.47
2022-08-17T02:43:47.149Z,92393.38
2022-08-17T02:46:17.145Z,92384.16
2022-08-17T02:48:47.142Z,92385.78
2022-08-17T02:51:17.539Z,92383.63
2022-08-17T02:53:48.286Z,92395.31
2022-08-17T02:56:19.985Z,92395.78
2022-08-17T02:58:50.141Z,92384.03
2022-08-17T03:01:20.711Z,92389.31
2022-08-17T03:03:50.706Z,92395.41
2022-08-17T03:06:20.822Z,92393.22
2022-08-17T03:08:50.973Z,92394.72
2022-08-17T03:11:22.688Z,92394.56
2022-08-17T03:13:52.786Z,92394.06
2022-08-17T03:16:23.646Z,92406.69
2022-08-17T03:18:55.162Z,92404.66
2022-08-17T03:21:25.206Z,92403.19
2022-08-17T03:23:55.489Z,92404.31
2022-08-17T03:26:29.801Z,92404.59
2022-08-17T03:28:59.962Z,92406.28
2022-08-17T03:31:29.993Z,92405.06
2022-08-17T03:34:01.445Z,92408.47
2022-08-17T03:36:31.503Z,92405.16
2022-08-17T03:39:06.902Z,92406.59
2022-08-17T03:41:39.484Z,92402.69
2022-08-17T03:44:09.462Z,92409.69
2022-08-17T03:46:56.581Z,92415.22
2022-08-17T03:49:43.401Z,92413.66
2022-08-17T03:54:12.728Z,92417.25
2022-08-17T03:56:46.026Z,92418.69
2022-08-17T03:59:22.397Z,92419.31
2022-08-17T04:01:55.637Z,92421.03
2022-08-17T04:04:27.599Z,92423.22
2022-08-17T04:06:59.147Z,92420.13
2022-08-17T04:09:30.725Z,92420.66
2022-08-17T04:12:01.298Z,92424.53
2022-08-17T04:14:52.243Z,92429.19
2022-08-17T04:17:27.374Z,92428.16
2022-08-17T04:19:58.421Z,92434.38
2022-08-17T04:22:32.205Z,92433.31
2022-08-17T04:25:09.395Z,92432.56
2022-08-17T04:27:39.595Z,92438.03
2022-08-17T04:30:11.806Z,92438.47
2022-08-17T04:33:06.230Z,92439.09
2022-08-17T04:35:42.227Z,92432.31
2022-08-17T04:38:15.703Z,92435.22
2022-08-17T04:41:05.163Z,92434.13
2022-08-17T04:43:37.450Z,92432.09
2022-08-17T04:46:10.692Z,92435.28
2022-08-17T04:48:43.406Z,92438.47
2022-08-17T04:51:17.683Z,92442.50
2022-08-17T04:53:54.354Z,92439.41
2022-08-17T04:56:28.983Z,92440.41
2022-08-17T04:59:03.343Z,92443.38
2022-08-17T05:01:37.002Z,92439.53
2022-08-17T05:04:32.796Z,92435.88
2022-08-17T05:07:00.965Z,92443.47
2022-08-17T05:09:31.383Z,92440.63
2022-08-17T05:12:06.453Z,92438.22
2022-08-17T05:14:36.607Z,92442.09
2022-08-17T05:17:11.145Z,92444.13
2022-08-17T05:19:42.106Z,92450.63
2022-08-17T05:22:12.023Z,92452.19
2022-08-17T05:24:53.341Z,92449.88
2022-08-17T05:27:25.449Z,92456.34
2022-08-17T05:30:02.963Z,92448.53
2022-08-17T05:32:38.257Z,92451.16
2022-08-17T05:35:11.414Z,92450.44
2022-08-17T05:37:41.446Z,92463.78
2022-08-17T05:40:12.845Z,92456.38
2022-08-17T05:42:44.782Z,92454.88
2022-08-17T05:45:16.113Z,92447.75
2022-08-17T05:47:58.241Z,92453.88
2022-08-17T05:50:36.053Z,92450.69
2022-08-17T05:53:15.043Z,92446.97
2022-08-17T05:56:00.403Z,92452.69
2022-08-17T05:58:49.255Z,92453.06
2022-08-17T06:01:32.444Z,92445.19
2022-08-17T06:04:17.730Z,92446.50
2022-08-17T06:06:57.127Z,92442.94
2022-08-17T06:09:41.758Z,92453.31
2022-08-17T06:12:36.286Z,92450.84
2022-08-17T06:15:25.406Z,92460.94
2022-08-17T06:17:59.543Z,92456.88
2022-08-17T06:20:37.847Z,92457.25
2022-08-17T06:23:13.066Z,92456.63
2022-08-17T06:25:51.907Z,92458.84
2022-08-17T06:28:32.447Z,92453.22
2022-08-17T06:31:10.767Z,92455.59
2022-08-17T06:33:46.723Z,92446.69
2022-08-17T06:36:37.287Z,92461.22
2022-08-17T06:39:29.160Z,92453.50
2022-08-17T06:43:02.358Z,92452.38
2022-08-17T06:45:14.083Z,92451.72
2022-08-17T06:47:55.227Z,92457.59
2022-08-17T06:53:46.769Z,92455.63
2022-08-17T06:56:27.307Z,92462.88
2022-08-17T06:59:23.634Z,92451.22
2022-08-17T07:01:56.827Z,92451.50
2022-08-17T07:04:33.082Z,92446.09
2022-08-17T07:07:22.927Z,92447.34
2022-08-17T07:09:58.287Z,92448.84
2022-08-17T07:12:34.483Z,92453.69
2022-08-17T07:15:15.226Z,92457.47
2022-08-17T07:17:48.455Z,92451.06
2022-08-17T07:20:23.002Z,92454.13
2022-08-17T07:23:01.025Z,92456.72
2022-08-17T07:25:33.466Z,92460.84
2022-08-17T07:28:08.169Z,92455.25
2022-08-17T07:30:47.147Z,92458.94
2022-08-17T07:33:24.444Z,92460.72
2022-08-17T07:35:55.108Z,92456.66
2022-08-17T07:38:28.656Z,92460.41
2022-08-17T07:41:11.131Z,92457.13
2022-08-17T07:43:52.674Z,92458.69
2022-08-17T07:46:42.215Z,92456.72
2022-08-17T07:49:38.544Z,92452.41
2022-08-17T07:52:48.574Z,92456.03
2022-08-17T07:55:03.386Z,92458.00
2022-08-17T07:57:37.707Z,92462.19
2022-08-17T08:00:31.848Z,92454.97
2022-08-17T08:03:19.347Z,92449.00
2022-08-17T08:05:56.702Z,92448.66
2022-08-17T08:08:40.065Z,92440.81
2022-08-17T08:11:15.796Z,92443.22
2022-08-17T08:13:50.351Z,92445.09
2022-08-17T08:16:29.894Z,92443.31
2022-08-17T08:19:02.541Z,92447.31
2022-08-17T08:21:46.823Z,92437.09
2022-08-17T08:24:41.638Z,92448.66
2022-08-17T08:27:34.725Z,92439.81
2022-08-17T08:30:12.128Z,92437.19
2022-08-17T08:33:24.274Z,92446.44
2022-08-17T08:36:03.066Z,92439.06
2022-08-17T08:38:50.985Z,92434.16
2022-08-17T08:41:45.285Z,92440.34
2022-08-17T08:45:01.340Z,92433.09
2022-08-17T08:47:43.047Z,92431.94
2022-08-17T08:50:37.666Z,92433.59
2022-08-17T08:53:31.368Z,92436.66
2022-08-17T08:56:06.696Z,92432.03
2022-08-17T08:58:51.231Z,92426.44
2022-08-17T09:01:30.050Z,92431.94
2022-08-17T09:04:25.990Z,92426.53
2022-08-17T09:07:09.696Z,92431.75
2022-08-17T09:09:59.155Z,92436.53
2022-08-17T09:12:42.561Z,92431.00
2022-08-17T09:15:20.346Z,92436.97
2022-08-17T09:18:36.456Z,92427.09
2022-08-17T09:20:59.906Z,92428.28
2022-08-17T09:23:36.707Z,92426.59
2022-08-17T09:26:22.437Z,92432.22
2022-08-17T09:29:01.758Z,92428.56
2022-08-17T09:31:46.451Z,92437.63
2022-08-17T09:34:33.103Z,92438.53
2022-08-17T09:37:22.083Z,92439.06
2022-08-17T09:40:08.241Z,92431.94
2022-08-17T09:42:48.961Z,92435.06
2022-08-17T09:45:34.047Z,92436.59
2022-08-17T09:48:10.427Z,92438.63
2022-08-17T09:53:44.561Z,92442.25
2022-08-17T09:56:34.983Z,92432.09
2022-08-17T09:59:45.193Z,92435.44
2022-08-17T10:02:58.317Z,92432.25
2022-08-17T10:05:37.986Z,92434.94
2022-08-17T10:08:21.842Z,92433.25
2022-08-17T10:11:18.844Z,92435.09
2022-08-17T10:13:59.700Z,92436.50
2022-08-17T10:16:40.271Z,92429.63
2022-08-17T10:19:20.425Z,92440.00
2022-08-17T10:22:32.759Z,92434.19
2022-08-17T10:25:30.188Z,92429.50
2022-08-17T10:28:22.825Z,92426.59
2022-08-17T10:34:07.619Z,92425.06
2022-08-17T10:36:49.497Z,92427.88
2022-08-17T10:39:28.014Z,92426.00
2022-08-17T10:42:05.471Z,92422.84
2022-08-17T10:44:52.606Z,92419.81
2022-08-17T10:47:24.401Z,92422.38
2022-08-17T10:49:56.383Z,92423.09
2022-08-17T10:52:51.426Z,92414.44
2022-08-17T10:55:22.726Z,92415.38
2022-08-17T10:57:55.227Z,92413.72
2022-08-17T11:01:04.355Z,92421.84
2022-08-17T11:03:34.614Z,92416.66
2022-08-17T11:06:19.323Z,92416.47
2022-08-17T11:09:27.967Z,92419.63
2022-08-17T11:12:26.047Z,92407.53
2022-08-17T11:15:13.269Z,92406.91
2022-08-17T11:18:23.826Z,92409.34
2022-08-17T11:21:38.043Z,92406.63
2022-08-17T11:24:24.545Z,92407.91
2022-08-17T11:27:14.225Z,92402.03
2022-08-17T11:30:00.837Z,92405.03
2022-08-17T11:32:47.450Z,92411.38
2022-08-17T11:35:41.011Z,92405.19
2022-08-17T11:38:27.228Z,92413.53
2022-08-17T11:41:16.710Z,92424.81
2022-08-17T11:44:12.822Z,92427.84
2022-08-17T11:47:18.444Z,92426.84
2022-08-17T11:50:37.702Z,92429.66
2022-08-17T11:53:10.165Z,92430.88
2022-08-17T11:56:08.386Z,92429.00
2022-08-17T11:58:42.608Z,92423.69
2022-08-17T12:01:16.177Z,92415.91
2022-08-17T12:03:55.963Z,92419.78
2022-08-17T12:06:47.826Z,92414.03
2022-08-17T12:09:25.294Z,92413.44
2022-08-17T12:12:12.656Z,92411.38
2022-08-17T12:15:10.102Z,92411.97
2022-08-17T12:17:42.881Z,92414.81
2022-08-17T12:20:21.926Z,92406.53
2022-08-17T12:23:01.509Z,92395.00
2022-08-17T12:25:42.585Z,92392.72
2022-08-17T12:28:25.623Z,92398.28
2022-08-17T12:30:56.566Z,92402.13
2022-08-17T12:33:29.163Z,92401.56
2022-08-17T12:36:04.544Z,92401.59
2022-08-17T12:38:37.084Z,92398.44
2022-08-17T12:41:29.905Z,92392.25
2022-08-17T12:44:03.324Z,92391.38
2022-08-17T12:46:38.320Z,92400.56
2022-08-17T12:49:24.314Z,92394.50
2022-08-17T12:53:42.870Z,92388.84
2022-08-17T12:56:16.205Z,92383.06
2022-08-17T12:58:53.821Z,92387.13
2022-08-17T13:01:25.415Z,92388.28
2022-08-17T13:04:01.370Z,92391.19
2022-08-17T13:06:35.413Z,92397.44
2022-08-17T13:09:16.744Z,92400.16
2022-08-17T13:11:52.041Z,92401.84
2022-08-17T13:14:22.645Z,92404.97
2022-08-17T13:16:58.581Z,92406.16
2022-08-17T13:19:40.424Z,92410.81
2022-08-17T13:22:15.204Z,92405.97
2022-08-17T13:24:56.726Z,92409.13
2022-08-17T13:27:29.756Z,92411.78
2022-08-17T13:30:02.507Z,92406.66
2022-08-17T13:32:43.884Z,92401.09
2022-08-17T13:35:50.089Z,92401.91
2022-08-17T13:38:41.446Z,92401.34
2022-08-17T13:41:35.004Z,92401.88
2022-08-17T13:44:15.372Z,92395.38
2022-08-17T13:46:57.163Z,92394.41
2022-08-17T13:49:41.968Z,92397.31
2022-08-17T13:52:39.786Z,92400.00
2022-08-17T13:55:19.883Z,92391.16
2022-08-17T13:58:03.967Z,92405.81
2022-08-17T14:00:39.686Z,92409.22
2022-08-17T14:03:09.723Z,92398.97
2022-08-17T14:05:42.162Z,92390.78
2022-08-17T14:08:15.062Z,92389.19
2022-08-17T14:10:45.403Z,92399.88
2022-08-17T14:13:16.992Z,92391.84
2022-08-17T14:15:54.562Z,92391.44
2022-08-17T14:18:35.627Z,92394.34
2022-08-17T14:21:17.787Z,92384.66
2022-08-17T14:23:49.016Z,92389.56
2022-08-17T14:26:25.037Z,92389.75
2022-08-17T14:28:57.119Z,92385.56
2022-08-17T14:31:28.381Z,92383.50
2022-08-17T14:33:59.383Z,92386.38
2022-08-17T14:36:29.522Z,92384.38
2022-08-17T14:38:59.744Z,92379.91
2022-08-17T14:41:29.725Z,92385.50
2022-08-17T14:44:01.434Z,92390.50
2022-08-17T14:46:31.627Z,92391.38
2022-08-17T14:49:03.204Z,92387.06
2022-08-17T14:51:33.283Z,92401.41
2022-08-17T14:54:03.411Z,92402.59
2022-08-17T14:56:37.873Z,92388.31
2022-08-17T14:59:09.927Z,92396.75
2022-08-17T15:01:40.197Z,92390.19
2022-08-17T15:04:18.628Z,92392.31
2022-08-17T15:06:49.386Z,92383.09
2022-08-17T15:09:19.962Z,92391.19
2022-08-17T15:11:50.110Z,92390.91
2022-08-17T15:14:23.026Z,92393.25
2022-08-17T15:16:53.093Z,92392.03
2022-08-17T15:19:23.243Z,92386.34
2022-08-17T15:21:53.322Z,92391.44
2022-08-17T15:24:23.526Z,92387.06
2022-08-17T15:26:53.423Z,92388.22
2022-08-17T15:29:25.207Z,92386.97
2022-08-17T15:32:00.039Z,92389.00
2022-08-17T15:34:30.754Z,92385.66
2022-08-17T15:37:00.845Z,92391.22
2022-08-17T15:39:31.120Z,92394.72
2022-08-17T15:42:05.726Z,92389.38
2022-08-17T15:44:43.714Z,92388.56
2022-08-17T15:47:17.373Z,92387.44
2022-08-17T15:49:48.621Z,92395.19
2022-08-17T15:53:41.084Z,92396.44
2022-08-17T15:56:15.703Z,92391.50
2022-08-17T15:58:48.323Z,92389.97
2022-08-17T16:02:16.308Z,92398.69
2022-08-17T16:04:29.969Z,92398.06
2022-08-17T16:07:02.014Z,92399.69
2022-08-17T16:09:33.624Z,92397.50
2022-08-17T16:12:13.324Z,92398.97
2022-08-17T16:14:43.366Z,92402.31
2022-08-17T16:17:38.579Z,92414.19
2022-08-17T16:20:03.712Z,92412.41
2022-08-17T16:22:37.986Z,92403.84
2022-08-17T16:25:15.423Z,92407.19
2022-08-17T16:27:46.332Z,92405.81
2022-08-17T16:30:18.100Z,92414.97
2022-08-17T16:32:51.945Z,92415.31
2022-08-17T16:35:25.606Z,92419.56
2022-08-17T16:37:57.526Z,92409.19
2022-08-17T16:40:35.798Z,92412.53
2022-08-17T16:43:12.346Z,92417.75
2022-08-17T16:45:42.843Z,92418.66
2022-08-17T16:48:12.882Z,92423.25
2022-08-17T16:50:43.747Z,92416.72
2022-08-17T16:53:34.267Z,92423.94
2022-08-17T16:56:07.827Z,92433.41
2022-08-17T16:58:41.268Z,92430.16
2022-08-17T17:01:12.055Z,92428.94
2022-08-17T17:03:46.592Z,92435.53
2022-08-17T17:06:26.666Z,92446.59
2022-08-17T17:09:02.886Z,92441.25
2022-08-17T17:11:40.107Z,92446.16
2022-08-17T17:14:16.606Z,92451.09
2022-08-17T17:16:58.169Z,92453.69
2022-08-17T17:19:36.402Z,92461.41
2022-08-17T17:22:16.980Z,92453.97
2022-08-17T17:25:00.603Z,92456.22
2022-08-17T17:27:44.421Z,92463.72
2022-08-17T17:30:31.985Z,92474.47
2022-08-17T17:33:07.211Z,92470.44
2022-08-17T17:35:50.147Z,92473.22
2022-08-17T17:38:28.956Z,92472.75
2022-08-17T17:41:06.104Z,92485.56
2022-08-17T17:43:40.182Z,92479.53
2022-08-17T17:46:27.742Z,92474.47
2022-08-17T17:48:59.882Z,92480.00
2022-08-17T17:52:06.590Z,92479.50
2022-08-17T17:54:58.982Z,92478.81
2022-08-17T17:57:47.182Z,92487.84
2022-08-17T18:00:27.364Z,92487.06
2022-08-17T18:03:15.515Z,92489.47
2022-08-17T18:06:10.430Z,92500.63
2022-08-17T18:08:58.535Z,92500.91
2022-08-17T18:11:53.443Z,92504.94
2022-08-17T18:14:48.268Z,92498.34
2022-08-17T18:17:20.709Z,92499.59
2022-08-17T18:19:50.931Z,92503.28
2022-08-17T18:22:23.668Z,92509.09
2022-08-17T18:24:57.708Z,92506.16
2022-08-17T18:27:35.499Z,92512.66
2022-08-17T18:30:29.267Z,92513.28
2022-08-17T18:33:23.585Z,92514.38
2022-08-17T18:35:58.710Z,92516.06
2022-08-17T18:38:34.571Z,92512.78
2022-08-17T18:41:19.271Z,92513.34
2022-08-17T18:44:04.521Z,92514.91
2022-08-17T18:46:37.969Z,92521.06
2022-08-17T18:49:28.303Z,92515.69
2022-08-17T18:53:42.542Z,92517.81
2022-08-17T18:56:31.259Z,92519.50
2022-08-17T18:59:34.002Z,92519.69
2022-08-17T19:02:44.268Z,92520.56
2022-08-17T19:05:29.532Z,92520.78
2022-08-17T19:08:23.788Z,92521.13
2022-08-17T19:10:59.646Z,92522.13
2022-08-17T19:13:36.644Z,92525.94
2022-08-17T19:16:14.764Z,92530.28
2022-08-17T19:18:51.245Z,92526.00
2022-08-17T19:21:25.964Z,92526.22
2022-08-17T19:24:02.633Z,92522.91
2022-08-17T19:26:51.068Z,92530.03
2022-08-17T19:29:34.323Z,92525.25
2022-08-17T19:32:05.383Z,92530.06
2022-08-17T19:34:39.209Z,92530.25
2022-08-17T19:37:18.710Z,92523.81
2022-08-17T19:40:00.632Z,92527.13
2022-08-17T19:42:47.954Z,92524.19
2022-08-17T19:45:36.575Z,92534.13
2022-08-17T19:48:20.762Z,92532.66
2022-08-17T19:50:58.611Z,92533.34
2022-08-17T19:54:03.812Z,92540.81
2022-08-17T19:56:40.324Z,92539.66
2022-08-17T19:59:21.628Z,92542.13
2022-08-17T20:01:58.595Z,92536.34
2022-08-17T20:04:40.828Z,92540.34
2022-08-17T20:07:25.783Z,92541.19
2022-08-17T20:10:05.854Z,92547.81
2022-08-17T20:12:40.437Z,92546.81
2022-08-17T20:15:16.613Z,92548.31
2022-08-17T20:17:49.255Z,92545.69
2022-08-17T20:20:30.988Z,92552.44
2022-08-17T20:23:08.908Z,92548.66
2022-08-17T20:25:48.561Z,92551.47
2022-08-17T20:28:26.331Z,92541.72
2022-08-17T20:30:58.407Z,92551.16
2022-08-17T20:33:34.205Z,92548.13
2022-08-17T20:36:18.699Z,92559.34
2022-08-17T20:38:54.818Z,92564.47
2022-08-17T20:41:27.796Z,92560.34
2022-08-17T20:44:08.445Z,92563.13
2022-08-17T20:47:11.973Z,92558.03
2022-08-17T20:49:54.558Z,92566.78
2022-08-17T20:52:52.842Z,92569.25
2022-08-17T20:55:56.186Z,92555.88
2022-08-17T20:58:59.341Z,92563.31
2022-08-17T21:01:40.723Z,92563.81
2022-08-17T21:05:00.642Z,92562.97
2022-08-17T21:07:46.606Z,92552.56
2022-08-17T21:10:19.816Z,92558.22
2022-08-17T21:12:57.543Z,92560.19
2022-08-17T21:15:41.465Z,92563.31
2022-08-17T21:18:20.042Z,92560.34
2022-08-17T21:21:17.446Z,92561.31
2022-08-17T21:24:17.435Z,92561.31
2022-08-17T21:26:59.072Z,92562.16
2022-08-17T21:29:34.063Z,92558.91
2022-08-17T21:32:24.179Z,92555.75
2022-08-17T21:35:31.405Z,92548.16
2022-08-17T21:38:19.789Z,92552.94
2022-08-17T21:40:53.506Z,92545.31
2022-08-17T21:43:29.703Z,92554.91
2022-08-17T21:46:08.192Z,92553.59
2022-08-17T21:48:49.895Z,92559.72
2022-08-17T21:53:48.326Z,92553.75
2022-08-17T21:56:27.734Z,92547.97
2022-08-17T21:59:02.109Z,92542.69
2022-08-17T22:01:35.990Z,92549.97
2022-08-17T22:04:28.027Z,92542.34
2022-08-17T22:06:59.061Z,92549.28
2022-08-17T22:09:34.362Z,92542.72
2022-08-17T22:12:11.698Z,92543.69
2022-08-17T22:14:52.506Z,92546.19
2022-08-17T22:17:27.568Z,92546.34
2022-08-17T22:20:01.086Z,92543.69
2022-08-17T22:22:57.064Z,92545.19
2022-08-17T22:25:31.512Z,92539.91
2022-08-17T22:28:04.486Z,92539.38
2022-08-17T22:30:38.407Z,92542.38
2022-08-17T22:33:39.973Z,92538.72
2022-08-17T22:36:32.978Z,92536.09
2022-08-17T22:39:26.469Z,92532.63
2022-08-17T22:42:01.358Z,92538.91
2022-08-17T22:44:35.968Z,92544.19
2022-08-17T22:47:23.223Z,92545.50
2022-08-17T22:49:56.804Z,92548.63
2022-08-17T22:52:35.463Z,92547.97
2022-08-17T22:55:31.423Z,92542.84
2022-08-17T22:58:21.243Z,92544.81
2022-08-17T23:00:52.429Z,92538.06
2022-08-17T23:03:25.050Z,92550.56
2022-08-17T23:06:08.350Z,92549.59
2022-08-17T23:08:50.196Z,92545.94
2022-08-17T23:11:20.345Z,92545.78
2022-08-17T23:14:08.668Z,92543.28
2022-08-17T23:16:42.724Z,92540.66
2022-08-17T23:19:13.911Z,92541.50
2022-08-17T23:21:45.427Z,92544.31
2022-08-17T23:24:22.026Z,92543.13
2022-08-17T23:26:52.075Z,92534.25
2022-08-17T23:29:24.208Z,92537.22
2022-08-17T23:31:58.087Z,92528.63
2022-08-17T23:34:28.553Z,92523.69
2022-08-17T23:36:58.789Z,92534.72
2022-08-17T23:39:28.998Z,92536.91
2022-08-17T23:42:00.208Z,92536.53
2022-08-17T23:44:32.980Z,92531.25
2022-08-17T23:47:03.992Z,92529.75
2022-08-17T23:49:34.488Z,92531.91
2022-08-17T23:52:10.266Z,92530.59
2022-08-17T23:54:44.672Z,92531.75
2022-08-17T23:57:17.746Z,92532.91
2022-08-17T23:59:49.408Z,92534.84
